Elrosa, MN (56325)

6:45 PM CDT on July 23, 2016 (GMT -0500)
Sauk Centre | | Change Station

Elev 1240 ft 45.71 °N, 94.93 °W | Updated 13 minutes ago

Scattered Clouds
Scattered Clouds
77 °F
Feels Like 77 °F
N
12
Wind Variable Wind from SE

Today
High -- | Low -- °F
--% Chance of Precip.
Yesterday
High -- | Low -- °F
Precip. -- in
Pressure 29.78 in
Visibility 10.0 miles
Clouds Scattered Clouds 1500 ft
Dew Point 71 °F
Humidity 80%
Rainfall 0.57 in
Snow Depth Not available.
5:54 AM 8:57 PM
Waning Gibbous, 81% visible
METAR KD39 232332Z AUTO 14010KT 10SM SCT015 25/22 A2978 RMK AO2 T02520216
Pressure 29.78 in
Visibility 10.0 miles
Clouds Scattered Clouds 1500 ft
Dew Point 71 °F
Humidity 80%
Rainfall 0.57 in
Snow Depth Not available.
5:54 AM 8:57 PM
Waning Gibbous, 81% visible
METAR KD39 232332Z AUTO 14010KT 10SM SCT015 25/22 A2978 RMK AO2 T02520216

10-Day Weather Forecast

Almanac

Astronomy

Jul. 23, 2016 Rise Set
Actual Time
Civil Twilight
Nautical Twilight
Astronomical Twilight
Moon
Length of Visible Light
Length of Day
Tomorrow will be .
, % of the Moon is Illuminated

Today's Extremes

State Highs State Lows

Community

WunderPhotos

Upload Photos

1,926,975 photos uploaded!

WunderBlog® & News

Nearby

Air Quality

  Air Quality AQ Index Pollutant
Not available.

Snow Depth

Station Depth Elevation

Earthquake Activity

City Distance Mag. Time & Date
Minimum magnitude displayed is 2.5.

Coastal Water Temperatures

Place Temperature

Stations

Nearby Weather Stations

Station Location Temp. Windchill Dew Point Humidity Wind Precip. Elev Updated Type
                   

Watches & Warnings

There are currently no watches in effect.